createdAt,value
2023-05-18T00:01:22.524Z,101756.41
2023-05-18T00:03:49.302Z,101745.88
2023-05-18T00:06:16.413Z,101758.44
2023-05-18T00:08:43.150Z,101750.78
2023-05-18T00:11:09.940Z,101755.34
2023-05-18T00:13:36.638Z,101749.66
2023-05-18T00:16:03.426Z,101746.38
2023-05-18T00:18:30.125Z,101745.63
2023-05-18T00:20:59.410Z,101749.81
2023-05-18T00:23:33.315Z,101753.72
2023-05-18T00:26:01.475Z,101741.47
2023-05-18T00:28:29.087Z,101738.84
2023-05-18T00:30:56.229Z,101742.44
2023-05-18T00:33:23.352Z,101741.78
2023-05-18T00:35:51.034Z,101740.75
2023-05-18T00:38:18.061Z,101734.31
2023-05-18T00:40:44.846Z,101744.97
2023-05-18T00:43:11.722Z,101745.81
2023-05-18T00:45:38.696Z,101744.75
2023-05-18T00:48:06.077Z,101741.06
2023-05-18T00:50:33.124Z,101739.75
2023-05-18T00:53:00.595Z,101735.91
2023-05-18T00:55:28.632Z,101729.28
2023-05-18T00:57:57.184Z,101727.84
2023-05-18T01:00:24.409Z,101722.25
2023-05-18T01:02:51.772Z,101738.81
2023-05-18T01:05:20.208Z,101734.84
2023-05-18T01:07:48.137Z,101730.56
2023-05-18T01:10:17.430Z,101732.22
2023-05-18T01:12:50.016Z,101737.97
2023-05-18T01:15:26.022Z,101737.19
2023-05-18T01:18:05.289Z,101750.84
2023-05-18T01:20:46.113Z,101718.66
2023-05-18T01:23:45.042Z,101736.81
2023-05-18T01:26:37.525Z,101740.06
2023-05-18T01:29:09.237Z,101731.28
2023-05-18T01:31:36.260Z,101735.59
2023-05-18T01:34:03.140Z,101731.50
2023-05-18T01:36:29.831Z,101732.22
2023-05-18T01:39:01.568Z,101745.25
2023-05-18T01:41:29.837Z,101733.47
2023-05-18T01:44:09.426Z,101742.75
2023-05-18T01:46:59.437Z,101741.69
2023-05-18T01:49:47.934Z,101746.16
2023-05-18T01:52:32.215Z,101733.50
2023-05-18T01:55:03.595Z,101745.66
2023-05-18T01:57:32.335Z,101744.72
2023-05-18T02:00:00.315Z,101742.88
2023-05-18T02:02:29.483Z,101745.56
2023-05-18T02:04:56.385Z,101743.94
2023-05-18T02:07:23.097Z,101738.66
2023-05-18T02:09:49.955Z,101716.25
2023-05-18T02:12:16.776Z,101739.78
2023-05-18T02:14:43.494Z,101745.97
2023-05-18T02:17:11.715Z,101748.09
2023-05-18T02:19:38.867Z,101751.28
2023-05-18T02:22:07.153Z,101750.97
2023-05-18T02:24:34.414Z,101749.88
2023-05-18T02:27:01.651Z,101749.13
2023-05-18T02:29:28.465Z,101751.16
2023-05-18T02:31:55.283Z,101742.06
2023-05-18T02:34:22.939Z,101738.66
2023-05-18T02:36:49.616Z,101741.22
2023-05-18T02:39:16.716Z,101737.72
2023-05-18T02:41:43.424Z,101750.34
2023-05-18T02:44:12.443Z,101734.66
2023-05-18T02:46:39.299Z,101733.81
2023-05-18T02:49:06.041Z,101727.16
2023-05-18T02:51:33.001Z,101743.88
2023-05-18T02:53:59.825Z,101736.50
2023-05-18T02:56:26.563Z,101739.19
2023-05-18T02:58:58.041Z,101735.91
2023-05-18T03:01:27.192Z,101735.59
2023-05-18T03:03:54.611Z,101723.72
2023-05-18T03:06:26.809Z,101735.16
2023-05-18T03:08:56.780Z,101732.50
2023-05-18T03:11:24.390Z,101720.28
2023-05-18T03:13:51.148Z,101736.41
2023-05-18T03:16:18.814Z,101719.75
2023-05-18T03:18:46.237Z,101721.31
2023-05-18T03:21:13.848Z,101710.03
2023-05-18T03:23:40.894Z,101722.28
2023-05-18T03:26:11.785Z,101715.63
2023-05-18T03:28:39.242Z,101724.69
2023-05-18T03:31:06.163Z,101711.13
2023-05-18T03:33:33.241Z,101710.47
2023-05-18T03:36:04.749Z,101705.19
2023-05-18T03:38:31.561Z,101707.69
2023-05-18T03:40:58.394Z,101715.63
2023-05-18T03:43:29.661Z,101721.06
2023-05-18T03:45:56.664Z,101716.78
2023-05-18T03:48:24.275Z,101722.81
2023-05-18T03:50:51.074Z,101711.63
2023-05-18T03:53:21.600Z,101726.03
2023-05-18T03:55:52.487Z,101708.34
2023-05-18T03:58:22.596Z,101714.53
2023-05-18T04:00:51.116Z,101711.03
2023-05-18T04:03:18.007Z,101710.19
2023-05-18T04:05:45.000Z,101710.63
2023-05-18T04:08:15.008Z,101705.50
2023-05-18T04:10:45.041Z,101715.84
2023-05-18T04:13:12.319Z,101712.97
2023-05-18T04:15:39.108Z,101709.91
2023-05-18T04:18:05.939Z,101716.91
2023-05-18T04:20:32.877Z,101713.38
2023-05-18T04:23:00.195Z,101712.00
2023-05-18T04:25:28.420Z,101710.00
2023-05-18T04:27:56.464Z,101682.38
2023-05-18T04:30:24.132Z,101715.03
2023-05-18T04:32:51.420Z,101699.25
2023-05-18T04:35:18.754Z,101699.16
2023-05-18T04:37:45.510Z,101705.00
2023-05-18T04:40:17.243Z,101703.31
2023-05-18T04:42:48.623Z,101714.41
2023-05-18T04:45:20.548Z,101714.63
2023-05-18T04:47:53.608Z,101722.25
2023-05-18T04:50:23.883Z,101721.56
2023-05-18T04:52:51.643Z,101723.59
2023-05-18T04:55:23.287Z,101725.81
2023-05-18T04:57:51.055Z,101730.88
2023-05-18T05:00:18.477Z,101725.97
2023-05-18T05:02:45.427Z,101720.59
2023-05-18T05:05:12.480Z,101731.91
2023-05-18T05:07:39.205Z,101724.72
2023-05-18T05:10:06.641Z,101728.03
2023-05-18T05:12:33.625Z,101734.03
2023-05-18T05:15:00.326Z,101728.78
2023-05-18T05:17:27.121Z,101734.16
2023-05-18T05:19:53.896Z,101707.97
2023-05-18T05:22:20.740Z,101728.72
2023-05-18T05:24:47.586Z,101723.56
2023-05-18T05:27:14.330Z,101737.13
2023-05-18T05:29:41.144Z,101733.53
2023-05-18T05:32:08.024Z,101732.09
2023-05-18T05:34:34.782Z,101728.06
2023-05-18T05:37:01.533Z,101732.03
2023-05-18T05:39:28.224Z,101729.50
2023-05-18T05:41:55.117Z,101744.47
2023-05-18T05:44:21.778Z,101748.75
2023-05-18T05:46:48.695Z,101737.66
2023-05-18T05:49:15.566Z,101750.56
2023-05-18T05:51:42.235Z,101742.22
2023-05-18T05:54:10.675Z,101750.19
2023-05-18T05:56:37.684Z,101746.47
2023-05-18T05:59:04.404Z,101757.59
2023-05-18T06:01:31.061Z,101758.88
2023-05-18T06:03:57.776Z,101744.72
2023-05-18T06:06:24.445Z,101765.94
2023-05-18T06:08:51.125Z,101766.22
2023-05-18T06:11:18.233Z,101765.94
2023-05-18T06:13:45.281Z,101771.53
2023-05-18T06:16:12.052Z,101777.53
2023-05-18T06:18:39.673Z,101767.56
2023-05-18T06:21:06.543Z,101778.84
2023-05-18T06:23:33.263Z,101781.44
2023-05-18T06:25:59.982Z,101777.88
2023-05-18T06:28:26.650Z,101780.78
2023-05-18T06:30:53.381Z,101779.38
2023-05-18T06:33:21.730Z,101777.91
2023-05-18T06:35:48.570Z,101784.22
2023-05-18T06:38:15.311Z,101782.34
2023-05-18T06:40:42.122Z,101785.19
2023-05-18T06:43:08.852Z,101777.28
2023-05-18T06:45:37.321Z,101775.22
2023-05-18T06:48:04.737Z,101786.19
2023-05-18T06:50:31.714Z,101782.91
2023-05-18T06:52:58.406Z,101783.59
2023-05-18T06:55:25.146Z,101774.84
2023-05-18T06:57:53.066Z,101777.38
2023-05-18T07:00:20.866Z,101783.50
2023-05-18T07:02:47.669Z,101797.00
2023-05-18T07:05:15.077Z,101784.66
2023-05-18T07:07:41.915Z,101788.28
2023-05-18T07:10:08.981Z,101790.44
2023-05-18T07:12:35.682Z,101792.56
2023-05-18T07:15:04.242Z,101777.84
2023-05-18T07:17:31.490Z,101781.16
2023-05-18T07:19:58.220Z,101783.84
2023-05-18T07:22:24.984Z,101784.63
2023-05-18T07:24:51.785Z,101786.41
2023-05-18T07:27:24.968Z,101790.16
2023-05-18T07:29:53.500Z,101795.13
2023-05-18T07:32:20.798Z,101786.44
2023-05-18T07:34:48.033Z,101788.47
2023-05-18T07:37:14.785Z,101790.56
2023-05-18T07:39:41.899Z,101792.50
2023-05-18T07:42:09.042Z,101798.06
2023-05-18T07:44:35.903Z,101790.31
2023-05-18T07:47:02.930Z,101793.69
2023-05-18T07:49:29.729Z,101791.38
2023-05-18T07:51:57.229Z,101790.56
2023-05-18T07:54:23.946Z,101795.53
2023-05-18T07:56:50.688Z,101799.06
2023-05-18T07:59:17.534Z,101801.50
2023-05-18T08:01:45.841Z,101800.66
2023-05-18T08:04:12.689Z,101801.03
2023-05-18T08:06:39.542Z,101807.13
2023-05-18T08:09:07.128Z,101808.91
2023-05-18T08:11:34.077Z,101789.41
2023-05-18T08:14:00.991Z,101807.06
2023-05-18T08:16:27.792Z,101811.59
2023-05-18T08:18:54.595Z,101804.41
2023-05-18T08:21:21.454Z,101817.66
2023-05-18T08:23:48.298Z,101810.13
2023-05-18T08:26:14.966Z,101813.81
2023-05-18T08:28:42.069Z,101820.22
2023-05-18T08:31:08.804Z,101805.44
2023-05-18T08:33:35.580Z,101818.72
2023-05-18T08:36:02.429Z,101819.91
2023-05-18T08:38:29.197Z,101816.72
2023-05-18T08:41:26.702Z,101810.41
2023-05-18T08:44:11.929Z,101806.41
2023-05-18T08:46:42.902Z,101808.81
2023-05-18T08:49:11.037Z,101800.44
2023-05-18T08:51:38.175Z,101798.97
2023-05-18T08:54:08.516Z,101795.94
2023-05-18T08:56:36.781Z,101804.78
2023-05-18T08:59:08.539Z,101808.59
2023-05-18T09:01:36.045Z,101793.34
2023-05-18T09:04:04.377Z,101800.91
2023-05-18T09:06:34.352Z,101800.81
2023-05-18T09:09:05.494Z,101802.94
2023-05-18T09:11:36.026Z,101798.56
2023-05-18T09:14:03.299Z,101790.00
2023-05-18T09:16:30.640Z,101799.25
2023-05-18T09:18:57.492Z,101793.50
2023-05-18T09:21:24.220Z,101795.38
2023-05-18T09:23:52.171Z,101789.25
2023-05-18T09:26:22.719Z,101799.78
2023-05-18T09:28:53.574Z,101793.38
2023-05-18T09:31:24.529Z,101777.16
2023-05-18T09:33:52.665Z,101782.50
2023-05-18T09:36:25.174Z,101777.66
2023-05-18T09:38:52.407Z,101781.22
2023-05-18T09:41:19.459Z,101787.81
2023-05-18T09:43:49.599Z,101788.00
2023-05-18T09:46:16.619Z,101775.38
2023-05-18T09:48:46.641Z,101779.44
2023-05-18T09:51:17.662Z,101782.78
2023-05-18T09:53:58.044Z,101780.59
2023-05-18T09:56:27.080Z,101776.19
2023-05-18T09:58:54.423Z,101778.44
2023-05-18T10:01:21.161Z,101782.09
2023-05-18T10:03:50.032Z,101760.72
2023-05-18T10:06:21.279Z,101770.44
2023-05-18T10:08:48.670Z,101769.25
2023-05-18T10:11:19.912Z,101774.16
2023-05-18T10:13:47.233Z,101774.19
2023-05-18T10:16:15.618Z,101777.63
2023-05-18T10:18:43.065Z,101776.13
2023-05-18T10:21:12.680Z,101768.06
2023-05-18T10:23:40.872Z,101781.16
2023-05-18T10:26:10.054Z,101781.81
2023-05-18T10:28:40.168Z,101784.34
2023-05-18T10:31:08.446Z,101781.59
2023-05-18T10:33:37.260Z,101772.56
2023-05-18T10:36:05.473Z,101752.81
2023-05-18T10:38:33.795Z,101776.41
2023-05-18T10:41:01.769Z,101781.94
2023-05-18T10:43:28.945Z,101777.69
2023-05-18T10:46:00.290Z,101780.84
2023-05-18T10:48:29.232Z,101780.13
2023-05-18T10:50:57.949Z,101777.28
2023-05-18T10:53:27.656Z,101770.03
2023-05-18T10:55:54.627Z,101769.75
2023-05-18T10:58:27.782Z,101782.72
2023-05-18T11:01:00.201Z,101784.31
2023-05-18T11:03:28.696Z,101772.00
2023-05-18T11:06:10.970Z,101767.78
2023-05-18T11:08:50.739Z,101774.09
2023-05-18T11:11:19.440Z,101771.59
2023-05-18T11:13:51.651Z,101773.91
2023-05-18T11:16:20.075Z,101770.84
2023-05-18T11:18:52.473Z,101769.03
2023-05-18T11:21:36.060Z,101766.03
2023-05-18T11:24:22.579Z,101775.28
2023-05-18T11:26:53.684Z,101777.75
2023-05-18T11:29:23.379Z,101775.59
2023-05-18T11:31:54.890Z,101760.91
2023-05-18T11:34:46.705Z,101779.69
2023-05-18T11:37:50.703Z,101782.31
2023-05-18T11:40:49.181Z,101782.72
2023-05-18T11:43:23.815Z,101766.78
2023-05-18T11:45:59.597Z,101772.88
2023-05-18T11:48:30.228Z,101781.91
2023-05-18T11:50:58.196Z,101775.28
2023-05-18T11:53:27.030Z,101782.47
2023-05-18T11:55:55.140Z,101782.44
2023-05-18T11:58:24.855Z,101771.56
2023-05-18T12:00:52.855Z,101776.50
2023-05-18T12:03:25.970Z,101756.69
2023-05-18T12:05:53.458Z,101761.16
2023-05-18T12:08:21.856Z,101767.25
2023-05-18T12:10:52.305Z,101774.50
2023-05-18T12:13:19.601Z,101769.75
2023-05-18T12:15:46.806Z,101759.94
2023-05-18T12:18:14.438Z,101755.72
2023-05-18T12:20:41.496Z,101756.91
2023-05-18T12:23:08.258Z,101756.09
2023-05-18T12:25:36.620Z,101756.03
2023-05-18T12:28:04.980Z,101760.03
2023-05-18T12:30:35.801Z,101761.91
2023-05-18T12:33:04.493Z,101768.16
2023-05-18T12:35:32.394Z,101762.44
2023-05-18T12:38:00.842Z,101763.25
2023-05-18T12:40:34.393Z,101759.69
2023-05-18T12:43:03.149Z,101763.69
2023-05-18T12:45:33.578Z,101755.41
2023-05-18T12:48:12.146Z,101758.06
2023-05-18T12:50:50.661Z,101761.66
2023-05-18T12:53:18.128Z,101742.75
2023-05-18T12:55:45.395Z,101763.47
2023-05-18T12:58:19.416Z,101759.28
2023-05-18T13:00:48.507Z,101768.34
2023-05-18T13:03:18.162Z,101764.47
2023-05-18T13:05:46.722Z,101770.53
2023-05-18T13:08:22.313Z,101767.91
2023-05-18T13:10:58.367Z,101766.81
2023-05-18T13:13:28.648Z,101746.66
2023-05-18T13:15:55.521Z,101765.41
2023-05-18T13:18:22.225Z,101762.75
2023-05-18T13:20:54.413Z,101762.34
2023-05-18T13:23:24.108Z,101757.16
2023-05-18T13:25:51.243Z,101753.06
2023-05-18T13:28:20.728Z,101756.94
2023-05-18T13:30:49.300Z,101753.00
2023-05-18T13:33:18.175Z,101758.28
2023-05-18T13:35:46.429Z,101764.91
2023-05-18T13:38:14.260Z,101751.91
2023-05-18T13:40:43.070Z,101754.50
2023-05-18T13:43:11.967Z,101750.19
2023-05-18T13:45:41.284Z,101740.88
2023-05-18T13:48:10.726Z,101735.03
2023-05-18T13:50:38.204Z,101733.09
2023-05-18T13:53:07.764Z,101742.41
2023-05-18T13:55:34.897Z,101737.44
2023-05-18T13:58:02.067Z,101720.09
2023-05-18T14:00:28.885Z,101730.84
2023-05-18T14:02:56.819Z,101732.97
2023-05-18T14:05:23.963Z,101728.97
2023-05-18T14:07:52.764Z,101729.94
2023-05-18T14:10:19.848Z,101726.31
2023-05-18T14:12:47.117Z,101725.56
2023-05-18T14:15:14.263Z,101728.63
2023-05-18T14:17:41.965Z,101735.56
2023-05-18T14:20:09.472Z,101733.94
2023-05-18T14:22:36.438Z,101733.25
2023-05-18T14:25:03.410Z,101734.75
2023-05-18T14:27:30.166Z,101743.84
2023-05-18T14:29:56.982Z,101740.13
2023-05-18T14:32:23.858Z,101739.91
2023-05-18T14:34:52.129Z,101717.38
2023-05-18T14:37:19.386Z,101737.78
2023-05-18T14:39:46.243Z,101743.56
2023-05-18T14:42:12.997Z,101734.06
2023-05-18T14:44:39.713Z,101727.97
2023-05-18T14:47:06.796Z,101731.09
2023-05-18T14:49:33.796Z,101733.28
2023-05-18T14:52:00.601Z,101731.53
2023-05-18T14:54:27.297Z,101729.28
2023-05-18T14:56:54.070Z,101724.84
2023-05-18T14:59:21.664Z,101733.13
2023-05-18T15:01:48.823Z,101721.44
2023-05-18T15:04:15.582Z,101721.91
2023-05-18T15:06:42.376Z,101717.56
2023-05-18T15:09:12.006Z,101726.88
2023-05-18T15:11:38.923Z,101711.31
2023-05-18T15:14:05.601Z,101712.50
2023-05-18T15:16:32.850Z,101713.94
2023-05-18T15:18:59.678Z,101720.78
2023-05-18T15:21:26.642Z,101714.94
2023-05-18T15:23:53.894Z,101715.97
2023-05-18T15:26:21.422Z,101700.09
2023-05-18T15:28:49.417Z,101711.38
2023-05-18T15:31:16.466Z,101704.84
2023-05-18T15:33:43.854Z,101701.31
2023-05-18T15:36:10.955Z,101703.25
2023-05-18T15:38:37.859Z,101705.75
2023-05-18T15:41:05.609Z,101706.75
2023-05-18T15:43:34.348Z,101708.53
2023-05-18T15:46:01.718Z,101704.34
2023-05-18T15:48:29.906Z,101695.84
2023-05-18T15:50:58.500Z,101706.72
2023-05-18T15:53:29.325Z,101706.53
2023-05-18T15:56:00.769Z,101704.94
2023-05-18T15:58:28.797Z,101701.53
2023-05-18T16:00:57.457Z,101698.94
2023-05-18T16:03:24.465Z,101702.28
2023-05-18T16:05:51.937Z,101705.75
2023-05-18T16:08:21.832Z,101699.09
2023-05-18T16:10:49.057Z,101699.44
2023-05-18T16:13:16.289Z,101703.44
2023-05-18T16:15:43.746Z,101697.03
2023-05-18T16:18:11.266Z,101697.22
2023-05-18T16:20:41.943Z,101687.06
2023-05-18T16:23:09.803Z,101681.75
2023-05-18T16:25:37.371Z,101683.53
2023-05-18T16:28:04.864Z,101687.38
2023-05-18T16:30:34.263Z,101679.28
2023-05-18T16:33:05.268Z,101682.75
2023-05-18T16:35:32.301Z,101683.44
2023-05-18T16:37:59.280Z,101675.31
2023-05-18T16:40:26.493Z,101679.13
2023-05-18T16:42:53.607Z,101679.03
2023-05-18T16:45:20.989Z,101680.16
2023-05-18T16:47:48.504Z,101680.56
2023-05-18T16:50:15.669Z,101676.13
2023-05-18T16:52:42.914Z,101680.00
2023-05-18T16:55:10.285Z,101679.00
2023-05-18T16:57:37.854Z,101667.81
2023-05-18T17:00:09.489Z,101666.94
2023-05-18T17:02:38.389Z,101664.03
2023-05-18T17:05:06.857Z,101662.81
2023-05-18T17:07:36.290Z,101663.19
2023-05-18T17:10:04.255Z,101649.19
2023-05-18T17:12:32.138Z,101659.63
2023-05-18T17:14:58.854Z,101645.84
2023-05-18T17:17:25.679Z,101642.66
2023-05-18T17:19:52.416Z,101649.25
2023-05-18T17:22:19.397Z,101659.69
2023-05-18T17:24:46.208Z,101651.47
2023-05-18T17:27:12.960Z,101644.25
2023-05-18T17:29:39.694Z,101650.84
2023-05-18T17:32:06.762Z,101657.09
2023-05-18T17:34:33.847Z,101663.59
2023-05-18T17:37:00.500Z,101658.59
2023-05-18T17:39:27.251Z,101667.81
2023-05-18T17:41:54.474Z,101650.97
2023-05-18T17:44:21.232Z,101659.31
2023-05-18T17:46:48.179Z,101663.38
2023-05-18T17:49:15.860Z,101672.97
2023-05-18T17:51:42.760Z,101666.22
2023-05-18T17:54:09.618Z,101662.16
2023-05-18T17:56:36.481Z,101680.00
2023-05-18T17:59:04.177Z,101688.38
2023-05-18T18:01:31.621Z,101676.97
2023-05-18T18:03:58.420Z,101682.38
2023-05-18T18:06:26.016Z,101681.44
2023-05-18T18:08:55.850Z,101686.47
2023-05-18T18:11:23.580Z,101683.56
2023-05-18T18:13:51.484Z,101656.66
2023-05-18T18:16:19.820Z,101686.56
2023-05-18T18:18:47.627Z,101684.56
2023-05-18T18:21:14.719Z,101683.25
2023-05-18T18:23:44.509Z,101686.69
2023-05-18T18:26:11.357Z,101684.31
2023-05-18T18:28:38.118Z,101684.06
2023-05-18T18:31:04.930Z,101678.53
2023-05-18T18:33:33.057Z,101677.50
2023-05-18T18:36:00.000Z,101677.56
2023-05-18T18:38:29.518Z,101674.69
2023-05-18T18:41:01.476Z,101691.28
2023-05-18T18:43:28.775Z,101685.47
2023-05-18T18:45:57.453Z,101684.88
2023-05-18T18:48:26.372Z,101697.09
2023-05-18T18:50:53.812Z,101696.25
2023-05-18T18:53:20.701Z,101700.94
2023-05-18T18:55:48.990Z,101705.31
2023-05-18T18:58:15.840Z,101700.84
2023-05-18T19:00:43.045Z,101698.94
2023-05-18T19:03:10.765Z,101708.19
2023-05-18T19:05:37.922Z,101700.63
2023-05-18T19:08:07.446Z,101704.22
2023-05-18T19:10:34.696Z,101712.06
2023-05-18T19:13:07.228Z,101716.44
2023-05-18T19:15:38.728Z,101723.69
2023-05-18T19:18:06.752Z,101719.41
2023-05-18T19:20:34.099Z,101723.91
2023-05-18T19:23:01.198Z,101725.13
2023-05-18T19:25:30.187Z,101726.34
2023-05-18T19:27:57.478Z,101734.03
2023-05-18T19:30:24.619Z,101728.88
2023-05-18T19:32:53.667Z,101737.28
2023-05-18T19:35:22.404Z,101742.88
2023-05-18T19:37:50.041Z,101744.47
2023-05-18T19:40:18.448Z,101752.59
2023-05-18T19:42:46.670Z,101752.00
2023-05-18T19:45:18.506Z,101761.91
2023-05-18T19:47:49.441Z,101758.50
2023-05-18T19:50:16.375Z,101759.41
2023-05-18T19:52:44.054Z,101774.50
2023-05-18T19:55:11.258Z,101765.47
2023-05-18T19:57:38.790Z,101771.81
2023-05-18T20:00:07.476Z,101773.00
2023-05-18T20:02:34.778Z,101776.16
2023-05-18T20:05:01.927Z,101771.81
2023-05-18T20:07:30.309Z,101788.34
2023-05-18T20:09:56.971Z,101785.19
2023-05-18T20:12:23.684Z,101782.63
2023-05-18T20:14:51.639Z,101783.34
2023-05-18T20:17:19.111Z,101795.38
2023-05-18T20:19:50.619Z,101786.31
2023-05-18T20:22:18.324Z,101783.66
2023-05-18T20:24:46.563Z,101796.69
2023-05-18T20:27:17.037Z,101790.63
2023-05-18T20:29:43.854Z,101798.31
2023-05-18T20:32:10.874Z,101790.44
2023-05-18T20:34:37.716Z,101806.03
2023-05-18T20:37:05.388Z,101811.19
2023-05-18T20:39:32.915Z,101810.22
2023-05-18T20:41:59.709Z,101811.94
2023-05-18T20:44:28.081Z,101806.81
2023-05-18T20:46:54.849Z,101790.75
2023-05-18T20:49:21.762Z,101810.78
2023-05-18T20:51:49.601Z,101814.03
2023-05-18T20:54:18.018Z,101808.75
2023-05-18T20:56:45.049Z,101817.00
2023-05-18T20:59:12.798Z,101802.97
2023-05-18T21:01:40.017Z,101822.03
2023-05-18T21:04:08.010Z,101814.31
2023-05-18T21:06:40.996Z,101810.72
2023-05-18T21:09:08.217Z,101813.00
2023-05-18T21:11:35.300Z,101828.88
2023-05-18T21:14:02.181Z,101821.25
2023-05-18T21:16:29.050Z,101830.59
2023-05-18T21:18:55.912Z,101835.69
2023-05-18T21:21:22.946Z,101836.31
2023-05-18T21:23:49.795Z,101836.59
2023-05-18T21:26:16.648Z,101839.66
2023-05-18T21:28:43.389Z,101841.81
2023-05-18T21:31:10.067Z,101843.03
2023-05-18T21:33:36.828Z,101843.47
2023-05-18T21:36:04.315Z,101847.06
2023-05-18T21:38:31.145Z,101848.47
2023-05-18T21:40:57.828Z,101853.63
2023-05-18T21:43:24.589Z,101855.69
2023-05-18T21:45:51.419Z,101857.34
2023-05-18T21:48:18.128Z,101862.41
2023-05-18T21:50:44.848Z,101853.78
2023-05-18T21:53:11.561Z,101856.69
2023-05-18T21:55:38.251Z,101855.41
2023-05-18T21:58:04.958Z,101845.31
2023-05-18T22:00:31.944Z,101861.19
2023-05-18T22:02:58.871Z,101853.31
2023-05-18T22:05:25.679Z,101855.00
2023-05-18T22:07:52.449Z,101847.13
2023-05-18T22:10:19.157Z,101863.84
2023-05-18T22:12:46.108Z,101824.06
2023-05-18T22:15:12.845Z,101855.97
2023-05-18T22:17:40.428Z,101861.84
2023-05-18T22:20:11.709Z,101849.69
2023-05-18T22:22:40.424Z,101857.91
2023-05-18T22:25:07.735Z,101849.94
2023-05-18T22:27:36.664Z,101857.59
2023-05-18T22:30:05.201Z,101849.72
2023-05-18T22:32:32.743Z,101854.66
2023-05-18T22:35:01.419Z,101859.81
2023-05-18T22:37:28.127Z,101857.31
2023-05-18T22:39:54.828Z,101866.56
2023-05-18T22:42:22.180Z,101865.41
2023-05-18T22:44:49.009Z,101860.63
2023-05-18T22:47:19.783Z,101851.16
2023-05-18T22:49:47.091Z,101860.63
2023-05-18T22:52:14.134Z,101848.88
2023-05-18T22:54:40.823Z,101854.03
2023-05-18T22:57:07.586Z,101870.03
2023-05-18T22:59:34.980Z,101857.94
2023-05-18T23:02:01.803Z,101855.63
2023-05-18T23:04:28.504Z,101863.97
2023-05-18T23:06:57.010Z,101873.22
2023-05-18T23:09:27.048Z,101883.06
2023-05-18T23:11:55.769Z,101866.44
2023-05-18T23:14:25.570Z,101872.69
2023-05-18T23:16:53.565Z,101882.13
2023-05-18T23:19:20.472Z,101874.13
2023-05-18T23:21:47.310Z,101875.22
2023-05-18T23:24:15.382Z,101888.22
2023-05-18T23:26:43.498Z,101895.56
2023-05-18T23:29:10.955Z,101889.94
2023-05-18T23:31:38.030Z,101895.75
2023-05-18T23:34:05.161Z,101893.84
2023-05-18T23:36:35.116Z,101896.34
2023-05-18T23:39:02.461Z,101898.63
2023-05-18T23:41:31.768Z,101898.75
2023-05-18T23:43:59.145Z,101904.28
2023-05-18T23:46:26.633Z,101893.22
2023-05-18T23:48:55.135Z,101908.25
2023-05-18T23:51:22.253Z,101895.44
2023-05-18T23:53:51.797Z,101905.22
2023-05-18T23:56:19.006Z,101905.91
2023-05-18T23:58:46.923Z,101899.00
